createdAt,value
2022-08-14T19:05:47.848Z,81.50
2022-08-14T19:08:22.055Z,81.70
2022-08-14T19:11:04.107Z,81.70
2022-08-14T19:13:48.532Z,81.70
2022-08-14T19:16:26.322Z,81.80
2022-08-14T19:19:01.116Z,82.20
2022-08-14T19:21:33.619Z,82.10
2022-08-14T19:24:29.297Z,82.20
2022-08-14T19:27:24.040Z,82.40
2022-08-14T19:30:20.098Z,82.40
2022-08-14T19:32:53.033Z,82.60
2022-08-14T19:35:24.365Z,82.70
2022-08-14T19:37:57.685Z,83.00
2022-08-14T19:40:40.215Z,84.00
2022-08-14T19:43:09.278Z,83.50
2022-08-14T19:45:39.086Z,83.80
2022-08-14T19:48:15.618Z,83.80
2022-08-14T19:50:46.773Z,84.10
2022-08-14T19:53:17.326Z,84.20
2022-08-14T19:56:04.768Z,84.60
2022-08-14T19:58:54.695Z,84.80
2022-08-14T20:01:37.013Z,85.20
2022-08-14T20:04:46.395Z,85.70
2022-08-14T20:07:09.053Z,86.00
2022-08-14T20:11:06.882Z,86.20
2022-08-14T20:12:35.460Z,86.40
2022-08-14T20:15:47.081Z,86.60
2022-08-14T20:18:49.350Z,86.90
2022-08-14T20:21:13.887Z,87.50
2022-08-14T20:23:42.337Z,87.90
2022-08-14T20:26:30.663Z,88.10
2022-08-14T20:29:04.696Z,88.30
2022-08-14T20:31:36.629Z,88.50
2022-08-14T20:34:19.381Z,88.80
2022-08-14T20:37:09.750Z,89.00
2022-08-14T20:39:43.732Z,89.40
2022-08-14T20:42:38.064Z,89.60
2022-08-14T20:45:23.926Z,89.80
2022-08-14T20:48:01.849Z,90.00
2022-08-14T20:50:36.620Z,90.20
2022-08-14T20:53:31.567Z,90.30
2022-08-14T20:56:03.528Z,90.50
2022-08-14T20:58:44.097Z,90.60
2022-08-14T21:01:13.836Z,90.70
2022-08-14T21:03:56.898Z,90.80
2022-08-14T21:07:24.561Z,90.90
2022-08-14T21:10:04.667Z,91.10
2022-08-14T21:12:33.779Z,91.20
2022-08-14T21:15:11.100Z,91.30
2022-08-14T21:17:43.243Z,91.80
2022-08-14T21:20:25.466Z,91.60
2022-08-14T21:22:56.389Z,91.80
2022-08-14T21:25:24.311Z,91.80
2022-08-14T21:27:56.837Z,91.90
2022-08-14T21:30:51.668Z,92.10
2022-08-14T21:33:12.724Z,92.10
2022-08-14T21:35:45.750Z,92.20
2022-08-14T21:38:18.237Z,92.30
2022-08-14T21:40:54.003Z,92.40
2022-08-14T21:43:26.469Z,92.50
2022-08-14T21:45:58.885Z,92.70
2022-08-14T21:48:29.856Z,92.80
2022-08-14T21:51:55.078Z,92.90
2022-08-14T21:53:58.262Z,93.00
2022-08-14T21:56:38.154Z,93.20
2022-08-14T21:59:17.863Z,93.40
2022-08-14T22:02:01.165Z,93.50
2022-08-14T22:04:40.050Z,93.40
2022-08-14T22:07:12.150Z,93.60
2022-08-14T22:09:42.768Z,93.70
2022-08-14T22:12:45.421Z,93.70
2022-08-14T22:15:07.545Z,94.00
2022-08-14T22:17:35.302Z,94.10
2022-08-14T22:20:05.148Z,94.40
2022-08-14T22:22:32.814Z,94.40
2022-08-14T22:25:01.083Z,94.50
2022-08-14T22:27:32.360Z,94.60
2022-08-14T22:30:03.149Z,94.90
2022-08-14T22:32:35.273Z,95.00
2022-08-14T22:35:18.910Z,95.10
2022-08-14T22:38:34.747Z,95.20
2022-08-14T22:41:03.349Z,95.40
2022-08-14T22:43:31.566Z,95.50
2022-08-14T22:46:02.479Z,95.70
2022-08-14T22:48:30.311Z,96.00
2022-08-14T22:50:58.458Z,96.00
2022-08-14T22:53:29.385Z,96.10
2022-08-14T22:55:58.913Z,96.30
2022-08-14T22:58:30.236Z,96.40
2022-08-14T23:01:06.487Z,96.60
2022-08-14T23:03:42.227Z,96.80
2022-08-14T23:07:03.575Z,96.90
2022-08-14T23:09:35.086Z,97.00
2022-08-14T23:11:49.222Z,97.20
2022-08-14T23:14:24.030Z,97.40
2022-08-14T23:16:57.321Z,97.60
2022-08-14T23:19:33.665Z,97.80
2022-08-14T23:22:05.261Z,98.00
2022-08-14T23:24:34.721Z,98.20
2022-08-14T23:27:02.672Z,98.30
2022-08-14T23:29:39.747Z,98.50
2022-08-14T23:32:15.726Z,98.50
2022-08-14T23:34:48.147Z,98.70
2022-08-14T23:37:19.459Z,98.90
2022-08-14T23:39:54.814Z,98.80
2022-08-14T23:42:40.056Z,98.90
2022-08-14T23:45:09.632Z,98.90
2022-08-14T23:47:51.888Z,99.10
2022-08-14T23:50:34.667Z,99.40
2022-08-14T23:53:47.735Z,99.50
2022-08-14T23:56:31.998Z,99.60
2022-08-14T23:59:01.862Z,99.60
